createdAt,value
2022-09-20T00:04:49.854Z,7.00
2022-09-20T00:09:52.394Z,9.32
2022-09-20T00:14:54.792Z,6.80
2022-09-20T00:19:57.238Z,7.95
2022-09-20T00:24:59.716Z,7.22
2022-09-20T00:30:02.199Z,6.50
2022-09-20T00:35:07.952Z,6.20
2022-09-20T00:40:14.725Z,9.30
2022-09-20T00:45:24.146Z,12.68
2022-09-20T00:50:48.231Z,7.18
2022-09-20T00:55:52.774Z,7.88
2022-09-20T01:00:57.407Z,14.20
2022-09-20T01:06:03.646Z,10.45
2022-09-20T01:11:06.073Z,6.53
2022-09-20T01:16:08.880Z,5.65
2022-09-20T01:21:11.300Z,6.22
2022-09-20T01:26:16.619Z,6.32
2022-09-20T01:31:29.942Z,10.88
2022-09-20T01:36:38.268Z,6.25
2022-09-20T01:41:42.413Z,4.95
2022-09-20T01:46:46.888Z,5.35
2022-09-20T01:51:55.009Z,6.38
2022-09-20T01:57:12.330Z,7.15
2022-09-20T02:02:22.731Z,4.43
2022-09-20T02:07:43.242Z,6.28
2022-09-20T02:12:59.328Z,5.47
2022-09-20T02:18:19.891Z,5.63
2022-09-20T02:23:43.398Z,4.82
2022-09-20T02:28:51.764Z,6.60
2022-09-20T02:34:15.773Z,6.90
2022-09-20T02:39:23.061Z,8.32
2022-09-20T02:49:47.234Z,4.97
2022-09-20T02:54:58.376Z,6.50
2022-09-20T03:00:26.977Z,7.35
2022-09-20T03:05:50.950Z,4.70
2022-09-20T03:11:17.148Z,6.50
2022-09-20T03:16:27.862Z,7.15
2022-09-20T03:21:36.445Z,4.25
2022-09-20T03:26:42.659Z,5.55
2022-09-20T03:31:49.135Z,6.95
2022-09-20T03:36:54.750Z,3.33
2022-09-20T03:42:27.210Z,5.45
2022-09-20T03:47:46.921Z,4.03
2022-09-20T03:52:58.488Z,4.93
2022-09-20T03:58:21.097Z,6.35
2022-09-20T04:03:53.530Z,4.60
2022-09-20T04:09:16.216Z,5.88
2022-09-20T04:14:33.947Z,6.90
2022-09-20T04:19:42.298Z,5.88
2022-09-20T04:24:54.723Z,3.75
2022-09-20T04:30:06.136Z,5.25
2022-09-20T04:35:59.043Z,5.07
2022-09-20T04:41:06.980Z,4.32
2022-09-20T04:46:24.539Z,3.72
2022-09-20T04:51:51.348Z,3.47
2022-09-20T04:57:47.408Z,3.75
2022-09-20T05:03:00.304Z,5.35
2022-09-20T05:08:14.890Z,3.28
2022-09-20T05:13:34.754Z,5.47
2022-09-20T05:19:04.100Z,5.10
2022-09-20T05:24:24.702Z,4.10
2022-09-20T05:29:42.496Z,3.22
2022-09-20T05:34:44.830Z,3.20
2022-09-20T05:39:54.708Z,3.65
2022-09-20T05:45:21.684Z,3.55
2022-09-20T05:50:53.857Z,4.80
2022-09-20T05:56:23.091Z,3.90
2022-09-20T06:01:35.481Z,4.68
2022-09-20T06:06:52.946Z,5.13
2022-09-20T06:12:12.704Z,3.67
2022-09-20T06:17:37.846Z,2.67
2022-09-20T06:22:47.318Z,2.97
2022-09-20T06:27:57.157Z,2.42
2022-09-20T06:33:01.634Z,2.22
2022-09-20T06:38:25.511Z,3.50
2022-09-20T06:43:31.589Z,4.82
2022-09-20T06:48:34.470Z,2.70
2022-09-20T06:53:39.804Z,2.38
2022-09-20T06:58:42.355Z,4.03
2022-09-20T07:03:44.706Z,2.83
2022-09-20T07:08:47.634Z,4.35
2022-09-20T07:13:55.275Z,3.00
2022-09-20T07:18:57.971Z,2.13
2022-09-20T07:24:02.051Z,3.78
2022-09-20T07:29:04.562Z,3.65
2022-09-20T07:34:06.927Z,3.08
2022-09-20T07:39:09.237Z,2.35
2022-09-20T07:44:28.001Z,3.30
2022-09-20T07:49:30.516Z,2.92
2022-09-20T07:54:32.923Z,2.42
2022-09-20T07:59:35.420Z,1.83
2022-09-20T08:04:37.774Z,3.42
2022-09-20T08:09:40.145Z,1.10
2022-09-20T08:14:42.516Z,0.90
2022-09-20T08:19:45.209Z,1.13
2022-09-20T08:24:47.565Z,1.17
2022-09-20T08:29:50.228Z,4.00
2022-09-20T08:34:52.617Z,1.13
2022-09-20T08:39:57.923Z,2.72
2022-09-20T08:45:06.788Z,1.15
2022-09-20T08:50:17.284Z,1.88
2022-09-20T08:55:28.122Z,1.48
2022-09-20T09:00:33.301Z,0.70
2022-09-20T09:05:47.615Z,0.60
2022-09-20T09:10:55.212Z,1.20
2022-09-20T09:16:00.925Z,1.05
2022-09-20T09:21:05.124Z,0.93
2022-09-20T09:26:16.238Z,0.50
2022-09-20T09:31:26.855Z,1.45
2022-09-20T09:36:29.420Z,0.40
2022-09-20T09:41:35.795Z,1.08
2022-09-20T09:46:43.451Z,1.85
2022-09-20T09:57:16.139Z,0.55
2022-09-20T10:02:36.924Z,0.85
2022-09-20T10:07:52.165Z,0.57
2022-09-20T10:13:22.351Z,0.50
2022-09-20T10:18:49.406Z,0.50
2022-09-20T10:24:17.007Z,1.50
2022-09-20T10:29:46.595Z,1.73
2022-09-20T10:35:02.109Z,1.27
2022-09-20T10:40:46.650Z,0.70
2022-09-20T10:51:46.737Z,0.50
2022-09-20T10:56:52.310Z,0.30
2022-09-20T11:02:06.882Z,0.77
2022-09-20T11:07:30.267Z,0.30
2022-09-20T11:12:50.199Z,0.70
2022-09-20T11:18:14.551Z,0.65
2022-09-20T11:23:23.749Z,1.27
2022-09-20T11:28:32.708Z,0.30
2022-09-20T11:33:44.000Z,0.40
2022-09-20T11:38:53.099Z,0.52
2022-09-20T11:44:00.589Z,1.20
2022-09-20T11:49:12.424Z,0.35
2022-09-20T11:54:27.895Z,1.60
2022-09-20T11:59:40.547Z,0.95
2022-09-20T12:04:46.036Z,0.57
2022-09-20T12:10:00.936Z,0.52
2022-09-20T12:15:07.042Z,0.73
2022-09-20T12:20:39.911Z,0.70
2022-09-20T12:26:03.305Z,1.08
2022-09-20T12:31:29.692Z,0.40
2022-09-20T12:36:36.292Z,4.72
2022-09-20T12:42:06.443Z,7.50
2022-09-20T12:47:11.380Z,1.65
2022-09-20T12:52:47.364Z,2.60
2022-09-20T12:58:14.446Z,1.67
2022-09-20T13:03:21.794Z,0.60
2022-09-20T13:08:28.160Z,0.30
2022-09-20T13:13:41.361Z,0.47
2022-09-20T13:18:44.006Z,0.40
2022-09-20T13:23:51.020Z,0.40
2022-09-20T13:28:56.179Z,0.43
2022-09-20T13:34:23.394Z,0.43
2022-09-20T13:39:31.635Z,0.25
2022-09-20T13:44:35.210Z,0.45
2022-09-20T13:49:43.886Z,0.60
2022-09-20T13:54:46.527Z,0.65
2022-09-20T13:59:49.403Z,1.13
2022-09-20T14:04:54.700Z,2.05
2022-09-20T14:09:58.302Z,1.13
2022-09-20T14:15:11.486Z,1.35
2022-09-20T14:20:15.957Z,0.70
2022-09-20T14:25:28.126Z,0.63
2022-09-20T14:30:33.240Z,4.65
2022-09-20T14:35:35.655Z,2.42
2022-09-20T14:40:48.713Z,1.42
2022-09-20T14:46:00.694Z,1.98
2022-09-20T14:51:12.761Z,6.25
2022-09-20T14:56:16.290Z,4.70
2022-09-20T15:01:26.089Z,5.63
2022-09-20T15:06:28.425Z,1.98
2022-09-20T15:11:30.795Z,4.07
2022-09-20T15:16:36.299Z,2.10
2022-09-20T15:21:39.098Z,1.73
2022-09-20T15:26:41.462Z,2.38
2022-09-20T15:31:48.217Z,3.33
2022-09-20T15:36:50.919Z,1.67
2022-09-20T15:41:53.839Z,1.33
2022-09-20T15:46:56.447Z,2.05
2022-09-20T15:51:58.846Z,10.02
2022-09-20T15:57:01.297Z,11.23
2022-09-20T16:02:03.874Z,9.90
2022-09-20T16:07:09.541Z,6.57
2022-09-20T16:12:12.043Z,4.13
2022-09-20T16:17:15.206Z,2.88
2022-09-20T16:22:19.437Z,2.53
2022-09-20T16:27:21.886Z,2.22
2022-09-20T16:32:24.302Z,1.83
2022-09-20T16:37:26.753Z,1.77
2022-09-20T16:42:29.509Z,1.73
2022-09-20T16:47:31.819Z,2.05
2022-09-20T16:52:35.906Z,4.32
2022-09-20T16:57:38.522Z,1.52
2022-09-20T17:02:44.572Z,2.35
2022-09-20T17:07:49.549Z,4.10
2022-09-20T17:12:57.701Z,3.40
2022-09-20T17:18:00.266Z,4.13
2022-09-20T17:23:02.981Z,4.30
2022-09-20T17:28:05.347Z,4.20
2022-09-20T17:33:08.034Z,4.45
2022-09-20T17:38:10.598Z,4.03
2022-09-20T17:43:12.879Z,4.22
2022-09-20T17:48:15.714Z,7.03
2022-09-20T17:53:18.169Z,4.32
2022-09-20T17:58:20.610Z,6.22
2022-09-20T18:03:24.107Z,4.50
2022-09-20T18:08:26.485Z,5.15
2022-09-20T18:13:30.412Z,9.40
2022-09-20T18:18:33.212Z,10.00
2022-09-20T18:23:35.554Z,9.00
2022-09-20T18:28:38.091Z,8.15
2022-09-20T18:33:41.153Z,7.55
2022-09-20T18:38:46.986Z,7.60
2022-09-20T18:43:49.286Z,9.10
2022-09-20T18:48:55.903Z,10.82
2022-09-20T18:53:58.752Z,8.87
2022-09-20T18:59:09.408Z,11.63
2022-09-20T19:04:33.736Z,13.25
2022-09-20T19:10:03.910Z,12.82
2022-09-20T19:15:08.985Z,15.43
2022-09-20T19:20:51.717Z,15.65
2022-09-20T19:26:24.569Z,13.57
2022-09-20T19:31:32.262Z,13.55
2022-09-20T19:36:57.980Z,13.73
2022-09-20T19:42:20.088Z,11.50
2022-09-20T19:47:34.510Z,12.23
2022-09-20T19:52:39.507Z,14.75
2022-09-20T19:57:47.239Z,13.50
2022-09-20T20:02:49.995Z,11.70
2022-09-20T20:08:13.643Z,12.32
2022-09-20T20:14:02.563Z,12.52
2022-09-20T20:19:30.894Z,12.45
2022-09-20T20:24:36.160Z,13.95
2022-09-20T20:29:38.525Z,11.13
2022-09-20T20:34:40.934Z,10.50
2022-09-20T20:39:43.335Z,12.45
2022-09-20T20:44:46.128Z,10.57
2022-09-20T20:49:52.507Z,13.07
2022-09-20T20:54:55.141Z,7.63
2022-09-20T20:59:57.575Z,10.93
2022-09-20T21:05:01.311Z,9.52
2022-09-20T21:10:03.887Z,10.90
2022-09-20T21:15:06.725Z,10.65
2022-09-20T21:20:09.867Z,10.93
2022-09-20T21:25:12.833Z,10.80
2022-09-20T21:30:15.384Z,10.63
2022-09-20T21:35:17.756Z,14.05
2022-09-20T21:40:20.046Z,12.80
2022-09-20T21:45:25.162Z,14.93
2022-09-20T21:50:27.413Z,13.52
2022-09-20T21:55:29.751Z,10.93
2022-09-20T22:00:32.097Z,12.18
2022-09-20T22:05:34.844Z,13.00
2022-09-20T22:10:37.156Z,18.55
2022-09-20T22:15:39.562Z,11.32
2022-09-20T22:20:41.965Z,11.95
2022-09-20T22:25:44.216Z,11.32
2022-09-20T22:30:46.576Z,11.73
2022-09-20T22:35:48.990Z,12.90
2022-09-20T22:40:55.972Z,11.73
2022-09-20T22:46:03.599Z,10.45
2022-09-20T22:51:11.936Z,11.10
2022-09-20T22:56:25.690Z,14.13
2022-09-20T23:01:30.378Z,15.20
2022-09-20T23:06:41.505Z,11.30
2022-09-20T23:11:44.438Z,9.95
2022-09-20T23:16:47.312Z,12.15
2022-09-20T23:21:49.764Z,9.82
2022-09-20T23:26:52.192Z,11.15
2022-09-20T23:31:54.494Z,9.20
2022-09-20T23:36:56.899Z,8.45
2022-09-20T23:41:59.513Z,11.20
2022-09-20T23:47:01.855Z,10.38
2022-09-20T23:52:04.551Z,7.72
2022-09-20T23:57:06.872Z,11.65
